createdAt,value
2022-10-09T00:00:19.702Z,65.33
2022-10-09T00:01:19.706Z,63.13
2022-10-09T00:02:19.694Z,64.64
2022-10-09T00:03:19.646Z,64.96
2022-10-09T00:04:19.629Z,63.96
2022-10-09T00:05:19.646Z,59.67
2022-10-09T00:06:19.623Z,63.45
2022-10-09T00:07:19.577Z,59.48
2022-10-09T00:08:19.561Z,62.58
2022-10-09T00:09:19.540Z,65.87
2022-10-09T00:10:19.604Z,61.11
2022-10-09T00:11:19.533Z,63.89
2022-10-09T00:12:19.489Z,62.85
2022-10-09T00:13:19.465Z,67.93
2022-10-09T00:14:19.443Z,66.70
2022-10-09T00:15:19.429Z,60.26
2022-10-09T00:16:19.499Z,65.56
2022-10-09T00:17:19.398Z,69.26
2022-10-09T00:18:19.373Z,64.22
2022-10-09T00:19:19.358Z,60.91
2022-10-09T00:20:19.336Z,62.29
2022-10-09T00:21:19.347Z,62.04
2022-10-09T00:22:19.294Z,65.82
2022-10-09T00:23:19.280Z,67.22
2022-10-09T00:24:19.262Z,67.15
2022-10-09T00:25:19.241Z,64.50
2022-10-09T00:26:19.254Z,66.17
2022-10-09T00:27:19.207Z,64.46
2022-10-09T00:28:19.284Z,58.51
2022-10-09T00:29:19.170Z,64.84
2022-10-09T00:30:19.155Z,65.99
2022-10-09T00:31:19.242Z,58.54
2022-10-09T00:32:19.116Z,63.52
2022-10-09T00:33:19.090Z,67.70
2022-10-09T00:34:20.078Z,62.20
2022-10-09T00:35:19.061Z,64.96
2022-10-09T00:36:19.066Z,62.52
2022-10-09T00:37:19.023Z,58.61
2022-10-09T00:38:19.003Z,59.56
2022-10-09T00:39:18.984Z,62.47
2022-10-09T00:40:18.966Z,65.05
2022-10-09T00:41:18.983Z,63.59
2022-10-09T00:42:18.928Z,61.71
2022-10-09T00:43:18.913Z,64.01
2022-10-09T00:44:18.892Z,64.87
2022-10-09T00:45:18.881Z,62.29
2022-10-09T00:46:18.913Z,57.03
2022-10-09T00:47:18.834Z,61.14
2022-10-09T00:48:18.817Z,65.16
2022-10-09T00:49:18.807Z,63.54
2022-10-09T00:50:18.780Z,62.04
2022-10-09T00:51:18.790Z,67.81
2022-10-09T00:52:18.738Z,64.91
2022-10-09T00:53:18.731Z,57.52
2022-10-09T00:54:18.696Z,58.75
2022-10-09T00:55:18.679Z,61.31
2022-10-09T00:56:18.690Z,67.25
2022-10-09T00:57:18.647Z,65.39
2022-10-09T00:58:18.624Z,69.88
2022-10-09T00:59:18.607Z,61.21
2022-10-09T01:00:18.584Z,66.89
2022-10-09T01:01:19.638Z,59.78
2022-10-09T01:02:18.634Z,63.43
2022-10-09T01:03:18.538Z,64.29
2022-10-09T01:04:18.514Z,62.24
2022-10-09T01:05:18.504Z,63.05
2022-10-09T01:06:18.508Z,59.04
2022-10-09T01:07:18.459Z,63.82
2022-10-09T01:08:18.440Z,60.04
2022-10-09T01:09:18.429Z,64.40
2022-10-09T01:10:18.397Z,68.96
2022-10-09T01:11:19.417Z,64.38
2022-10-09T01:12:18.364Z,66.01
2022-10-09T01:13:18.346Z,64.82
2022-10-09T01:14:18.328Z,57.66
2022-10-09T01:15:18.311Z,65.99
2022-10-09T01:16:22.900Z,67.59
2022-10-09T01:17:19.276Z,66.23
2022-10-09T01:18:18.261Z,60.99
2022-10-09T01:19:18.270Z,63.30
2022-10-09T01:20:18.220Z,63.78
2022-10-09T01:21:18.238Z,65.61
2022-10-09T01:22:18.188Z,65.91
2022-10-09T01:23:18.168Z,64.58
2022-10-09T01:24:18.150Z,60.56
2022-10-09T01:25:18.137Z,61.12
2022-10-09T01:26:18.136Z,66.90
2022-10-09T01:27:18.087Z,65.27
2022-10-09T01:28:18.140Z,61.71
2022-10-09T01:29:18.056Z,63.90
2022-10-09T01:30:18.034Z,67.95
2022-10-09T01:31:18.090Z,63.35
2022-10-09T01:32:17.993Z,58.67
2022-10-09T01:33:17.985Z,62.36
2022-10-09T01:34:17.958Z,58.44
2022-10-09T01:35:17.969Z,62.67
2022-10-09T01:36:17.948Z,65.85
2022-10-09T01:37:17.928Z,64.06
2022-10-09T01:38:17.876Z,60.08
2022-10-09T01:39:17.857Z,64.27
2022-10-09T01:40:17.842Z,62.43
2022-10-09T01:41:17.843Z,62.95
2022-10-09T01:42:17.829Z,58.51
2022-10-09T01:43:17.790Z,65.25
2022-10-09T01:44:17.765Z,59.62
2022-10-09T01:45:17.770Z,62.75
2022-10-09T01:46:17.768Z,64.62
2022-10-09T01:47:17.734Z,60.26
2022-10-09T01:48:17.683Z,59.19
2022-10-09T01:49:17.687Z,66.10
2022-10-09T01:50:17.647Z,60.39
2022-10-09T01:51:17.630Z,57.40
2022-10-09T01:52:17.636Z,58.17
2022-10-09T01:53:17.616Z,61.65
2022-10-09T01:54:17.574Z,63.50
2022-10-09T01:55:17.554Z,66.03
2022-10-09T01:56:17.532Z,64.20
2022-10-09T01:57:17.549Z,61.34
2022-10-09T01:58:17.495Z,68.38
2022-10-09T01:59:17.477Z,63.32
2022-10-09T02:00:17.456Z,65.57
2022-10-09T02:01:17.542Z,65.04
2022-10-09T02:02:17.555Z,62.52
2022-10-09T02:03:17.400Z,66.93
2022-10-09T02:04:17.376Z,60.37
2022-10-09T02:05:17.372Z,65.71
2022-10-09T02:06:17.339Z,65.07
2022-10-09T02:07:17.352Z,63.38
2022-10-09T02:08:17.306Z,66.43
2022-10-09T02:09:17.286Z,61.26
2022-10-09T02:10:17.263Z,59.61
2022-10-09T02:11:17.245Z,66.72
2022-10-09T02:12:17.257Z,62.14
2022-10-09T02:13:17.226Z,57.53
2022-10-09T02:14:17.246Z,62.23
2022-10-09T02:15:17.172Z,63.61
2022-10-09T02:16:17.200Z,67.07
2022-10-09T02:17:17.140Z,65.34
2022-10-09T02:18:17.119Z,65.81
2022-10-09T02:19:17.125Z,63.82
2022-10-09T02:20:17.078Z,61.76
2022-10-09T02:21:17.071Z,65.75
2022-10-09T02:22:17.073Z,65.62
2022-10-09T02:23:17.024Z,63.86
2022-10-09T02:24:17.006Z,63.69
2022-10-09T02:25:17.015Z,52.55
2022-10-09T02:26:16.970Z,64.52
2022-10-09T02:27:16.978Z,66.73
2022-10-09T02:28:17.021Z,65.52
2022-10-09T02:29:16.916Z,57.49
2022-10-09T02:30:16.893Z,68.28
2022-10-09T02:31:17.036Z,59.69
2022-10-09T02:32:16.884Z,66.39
2022-10-09T02:33:16.836Z,63.92
2022-10-09T02:34:16.847Z,62.29
2022-10-09T02:35:16.805Z,58.39
2022-10-09T02:36:16.783Z,63.45
2022-10-09T02:37:16.788Z,67.34
2022-10-09T02:38:16.746Z,66.35
2022-10-09T02:39:16.724Z,63.76
2022-10-09T02:40:16.706Z,65.56
2022-10-09T02:41:16.692Z,59.98
2022-10-09T02:42:16.697Z,62.62
2022-10-09T02:43:16.651Z,66.38
2022-10-09T02:44:16.632Z,62.58
2022-10-09T02:45:16.615Z,64.73
2022-10-09T02:46:16.715Z,64.79
2022-10-09T02:47:16.581Z,64.59
2022-10-09T02:48:16.560Z,65.27
2022-10-09T02:49:16.545Z,65.67
2022-10-09T02:50:16.519Z,65.91
2022-10-09T02:51:16.538Z,68.59
2022-10-09T02:52:16.481Z,68.21
2022-10-09T02:53:16.466Z,65.91
2022-10-09T02:54:16.449Z,63.96
2022-10-09T02:55:16.432Z,66.55
2022-10-09T02:56:16.444Z,62.39
2022-10-09T02:57:16.391Z,66.58
2022-10-09T02:58:16.380Z,61.95
2022-10-09T02:59:16.357Z,68.23
2022-10-09T03:00:16.363Z,68.97
2022-10-09T03:01:16.356Z,66.44
2022-10-09T03:02:16.359Z,67.59
2022-10-09T03:03:16.278Z,60.24
2022-10-09T03:04:16.259Z,62.91
2022-10-09T03:05:16.242Z,69.39
2022-10-09T03:06:16.226Z,65.87
2022-10-09T03:07:16.229Z,65.77
2022-10-09T03:08:16.186Z,67.58
2022-10-09T03:09:16.168Z,64.67
2022-10-09T03:10:16.148Z,63.05
2022-10-09T03:11:16.128Z,65.41
2022-10-09T03:12:16.135Z,66.95
2022-10-09T03:13:16.096Z,65.98
2022-10-09T03:14:16.074Z,65.08
2022-10-09T03:15:16.055Z,67.84
2022-10-09T03:16:16.223Z,66.48
2022-10-09T03:17:16.046Z,64.69
2022-10-09T03:18:15.990Z,60.52
2022-10-09T03:19:15.974Z,65.83
2022-10-09T03:20:16.644Z,61.73
2022-10-09T03:21:15.933Z,59.70
2022-10-09T03:22:15.940Z,67.70
2022-10-09T03:23:15.899Z,61.85
2022-10-09T03:24:15.877Z,67.05
2022-10-09T03:25:15.860Z,68.43
2022-10-09T03:26:15.839Z,66.93
2022-10-09T03:27:15.847Z,67.67
2022-10-09T03:28:15.844Z,67.43
2022-10-09T03:29:15.782Z,62.38
2022-10-09T03:30:15.768Z,69.73
2022-10-09T03:31:33.409Z,66.56
2022-10-09T03:32:17.820Z,65.33
2022-10-09T03:33:15.708Z,69.82
2022-10-09T03:34:15.695Z,64.98
2022-10-09T03:35:15.684Z,64.93
2022-10-09T03:36:15.655Z,65.32
2022-10-09T03:37:15.662Z,66.23
2022-10-09T03:38:15.613Z,69.02
2022-10-09T03:39:15.596Z,65.25
2022-10-09T03:40:15.578Z,58.77
2022-10-09T03:41:15.554Z,67.14
2022-10-09T03:42:15.561Z,62.45
2022-10-09T03:43:15.517Z,65.67
2022-10-09T03:44:15.503Z,65.98
2022-10-09T03:45:15.482Z,66.40
2022-10-09T03:46:15.485Z,69.55
2022-10-09T03:47:15.485Z,66.50
2022-10-09T03:48:15.425Z,65.03
2022-10-09T03:49:15.405Z,66.19
2022-10-09T03:50:15.383Z,67.08
2022-10-09T03:51:15.362Z,67.29
2022-10-09T03:52:15.370Z,67.02
2022-10-09T03:53:15.322Z,59.63
2022-10-09T03:54:15.343Z,66.65
2022-10-09T03:55:15.288Z,62.90
2022-10-09T03:56:15.298Z,67.78
2022-10-09T03:57:15.280Z,66.60
2022-10-09T03:58:15.229Z,67.95
2022-10-09T03:59:15.210Z,69.93
2022-10-09T04:00:15.194Z,63.06
2022-10-09T04:01:15.281Z,65.32
2022-10-09T04:02:15.250Z,67.66
2022-10-09T04:03:15.136Z,64.63
2022-10-09T04:04:15.120Z,69.29
2022-10-09T04:05:15.098Z,68.93
2022-10-09T04:06:15.080Z,68.02
2022-10-09T04:07:15.092Z,69.55
2022-10-09T04:08:15.051Z,67.38
2022-10-09T04:09:15.028Z,66.37
2022-10-09T04:10:15.011Z,66.42
2022-10-09T04:11:14.986Z,65.89
2022-10-09T04:12:14.996Z,67.46
2022-10-09T04:13:14.951Z,64.07
2022-10-09T04:14:14.932Z,66.94
2022-10-09T04:15:14.913Z,68.23
2022-10-09T04:16:14.958Z,68.59
2022-10-09T04:17:14.907Z,67.19
2022-10-09T04:18:14.862Z,67.69
2022-10-09T04:19:14.843Z,68.38
2022-10-09T04:20:14.822Z,65.78
2022-10-09T04:21:14.801Z,67.66
2022-10-09T04:22:14.810Z,69.61
2022-10-09T04:23:14.768Z,66.39
2022-10-09T04:24:14.746Z,64.29
2022-10-09T04:25:14.726Z,68.48
2022-10-09T04:26:14.706Z,68.11
2022-10-09T04:27:14.717Z,66.99
2022-10-09T04:28:14.763Z,69.50
2022-10-09T04:29:14.657Z,66.76
2022-10-09T04:30:14.631Z,65.05
2022-10-09T04:31:14.673Z,66.22
2022-10-09T04:32:14.622Z,68.21
2022-10-09T04:33:14.575Z,70.54
2022-10-09T04:34:14.555Z,66.94
2022-10-09T04:35:14.537Z,65.64
2022-10-09T04:36:14.519Z,68.73
2022-10-09T04:37:14.530Z,70.60
2022-10-09T04:38:14.484Z,69.30
2022-10-09T04:39:14.460Z,69.19
2022-10-09T04:40:14.447Z,68.71
2022-10-09T04:41:14.427Z,65.50
2022-10-09T04:42:14.542Z,67.73
2022-10-09T04:43:14.389Z,70.44
2022-10-09T04:44:14.370Z,70.08
2022-10-09T04:45:14.351Z,67.57
2022-10-09T04:46:14.438Z,69.42
2022-10-09T04:47:14.316Z,67.68
2022-10-09T04:48:14.298Z,66.74
2022-10-09T04:49:14.276Z,70.47
2022-10-09T04:50:14.258Z,65.67
2022-10-09T04:51:14.270Z,70.05
2022-10-09T04:52:14.218Z,67.14
2022-10-09T04:53:14.197Z,66.03
2022-10-09T04:54:14.187Z,70.06
2022-10-09T04:55:14.165Z,69.89
2022-10-09T04:56:14.173Z,68.39
2022-10-09T04:57:14.131Z,69.27
2022-10-09T04:58:14.107Z,65.88
2022-10-09T04:59:14.087Z,67.46
2022-10-09T05:00:14.073Z,66.70
2022-10-09T05:01:14.161Z,71.50
2022-10-09T05:02:14.097Z,68.68
2022-10-09T05:03:14.019Z,66.81
2022-10-09T05:04:13.996Z,68.10
2022-10-09T05:05:13.973Z,65.53
2022-10-09T05:06:13.983Z,68.09
2022-10-09T05:07:13.936Z,70.48
2022-10-09T05:08:13.921Z,67.07
2022-10-09T05:09:13.898Z,68.80
2022-10-09T05:10:13.891Z,69.49
2022-10-09T05:11:13.900Z,67.30
2022-10-09T05:12:13.837Z,69.30
2022-10-09T05:13:13.821Z,69.62
2022-10-09T05:14:13.804Z,67.67
2022-10-09T05:15:13.782Z,64.78
2022-10-09T05:16:13.810Z,68.68
2022-10-09T05:17:15.009Z,66.26
2022-10-09T05:18:14.723Z,68.56
2022-10-09T05:19:13.708Z,67.96
2022-10-09T05:20:13.691Z,68.24
2022-10-09T05:21:13.697Z,66.38
2022-10-09T05:22:13.648Z,72.17
2022-10-09T05:23:13.631Z,67.12
2022-10-09T05:24:13.612Z,69.06
2022-10-09T05:25:13.593Z,68.19
2022-10-09T05:26:13.602Z,62.76
2022-10-09T05:27:13.557Z,67.75
2022-10-09T05:28:13.643Z,66.20
2022-10-09T05:29:13.522Z,68.27
2022-10-09T05:30:13.506Z,69.79
2022-10-09T05:31:13.584Z,70.29
2022-10-09T05:32:13.555Z,71.27
2022-10-09T05:33:13.443Z,67.14
2022-10-09T05:34:13.427Z,72.40
2022-10-09T05:35:13.407Z,70.23
2022-10-09T05:36:13.416Z,73.30
2022-10-09T05:37:13.370Z,69.03
2022-10-09T05:38:13.350Z,70.51
2022-10-09T05:39:13.340Z,65.34
2022-10-09T05:40:13.317Z,68.94
2022-10-09T05:41:13.318Z,68.96
2022-10-09T05:42:14.279Z,67.64
2022-10-09T05:43:13.262Z,68.40
2022-10-09T05:44:13.241Z,68.28
2022-10-09T05:45:13.227Z,66.02
2022-10-09T05:46:13.242Z,67.85
2022-10-09T05:47:13.178Z,64.19
2022-10-09T05:48:13.163Z,68.45
2022-10-09T05:49:13.145Z,69.88
2022-10-09T05:50:13.126Z,69.56
2022-10-09T05:51:13.135Z,70.14
2022-10-09T05:52:13.087Z,69.55
2022-10-09T05:53:13.073Z,67.97
2022-10-09T05:54:13.051Z,64.32
2022-10-09T05:55:13.032Z,69.80
2022-10-09T05:56:13.039Z,71.49
2022-10-09T05:57:13.012Z,71.30
2022-10-09T05:58:13.978Z,67.53
2022-10-09T05:59:12.959Z,70.00
2022-10-09T06:00:12.947Z,71.80
2022-10-09T06:01:12.944Z,70.42
2022-10-09T06:02:12.976Z,70.57
2022-10-09T06:03:12.888Z,69.04
2022-10-09T06:04:12.868Z,66.40
2022-10-09T06:05:12.847Z,68.25
2022-10-09T06:06:12.830Z,68.88
2022-10-09T06:07:12.840Z,67.80
2022-10-09T06:08:12.786Z,67.74
2022-10-09T06:09:13.774Z,67.94
2022-10-09T06:10:12.754Z,69.03
2022-10-09T06:11:12.740Z,69.89
2022-10-09T06:12:12.747Z,67.46
2022-10-09T06:13:12.706Z,66.63
2022-10-09T06:14:12.687Z,66.78
2022-10-09T06:15:12.669Z,67.61
2022-10-09T06:16:12.669Z,67.57
2022-10-09T06:17:12.653Z,69.16
2022-10-09T06:18:12.606Z,69.39
2022-10-09T06:19:12.592Z,67.54
2022-10-09T06:20:12.566Z,66.49
2022-10-09T06:21:12.546Z,69.86
2022-10-09T06:22:12.553Z,69.03
2022-10-09T06:23:12.504Z,67.09
2022-10-09T06:24:12.478Z,68.40
2022-10-09T06:25:12.453Z,69.74
2022-10-09T06:26:12.429Z,67.22
2022-10-09T06:27:12.437Z,68.86
2022-10-09T06:28:12.425Z,70.02
2022-10-09T06:29:12.369Z,68.67
2022-10-09T06:30:12.359Z,67.87
2022-10-09T06:31:12.355Z,66.06
2022-10-09T06:32:12.339Z,67.86
2022-10-09T06:33:12.286Z,69.28
2022-10-09T06:34:12.273Z,67.75
2022-10-09T06:35:12.248Z,67.93
2022-10-09T06:36:12.237Z,66.58
2022-10-09T06:37:12.247Z,66.39
2022-10-09T06:38:12.277Z,67.66
2022-10-09T06:39:12.177Z,68.90
2022-10-09T06:40:12.164Z,67.83
2022-10-09T06:41:12.141Z,69.48
2022-10-09T06:42:12.159Z,68.16
2022-10-09T06:43:12.108Z,69.05
2022-10-09T06:44:16.408Z,69.17
2022-10-09T06:45:13.070Z,66.82
2022-10-09T06:46:12.094Z,67.95
2022-10-09T06:47:12.059Z,67.44
2022-10-09T06:48:12.005Z,67.91
2022-10-09T06:49:12.990Z,69.56
2022-10-09T06:50:12.013Z,67.54
2022-10-09T06:51:11.958Z,67.03
2022-10-09T06:52:11.970Z,68.56
2022-10-09T06:53:11.922Z,69.06
2022-10-09T06:54:11.900Z,68.03
2022-10-09T06:55:11.880Z,67.99
2022-10-09T06:56:11.870Z,69.60
2022-10-09T06:57:11.874Z,66.87
2022-10-09T06:58:11.827Z,65.61
2022-10-09T06:59:11.815Z,69.03
2022-10-09T07:00:11.790Z,68.75
2022-10-09T07:01:11.844Z,66.87
2022-10-09T07:02:11.859Z,66.96
2022-10-09T07:03:11.798Z,63.08
2022-10-09T07:04:11.721Z,67.52
2022-10-09T07:05:11.701Z,68.69
2022-10-09T07:06:11.683Z,68.33
2022-10-09T07:07:11.697Z,66.90
2022-10-09T07:08:11.645Z,69.69
2022-10-09T07:09:11.630Z,67.95
2022-10-09T07:10:11.609Z,66.06
2022-10-09T07:11:11.592Z,66.20
2022-10-09T07:12:11.598Z,65.64
2022-10-09T07:13:11.553Z,67.92
2022-10-09T07:14:11.534Z,70.57
2022-10-09T07:15:11.515Z,66.95
2022-10-09T07:16:11.625Z,67.65
2022-10-09T07:17:11.503Z,68.23
2022-10-09T07:18:11.458Z,67.66
2022-10-09T07:19:11.614Z,68.20
2022-10-09T07:20:11.421Z,69.83
2022-10-09T07:21:11.403Z,69.35
2022-10-09T07:22:11.412Z,68.51
2022-10-09T07:23:11.371Z,68.84
2022-10-09T07:24:11.358Z,67.35
2022-10-09T07:25:11.331Z,68.63
2022-10-09T07:26:11.311Z,67.34
2022-10-09T07:27:11.316Z,66.68
2022-10-09T07:28:11.327Z,69.29
2022-10-09T07:29:11.255Z,68.85
2022-10-09T07:30:11.236Z,68.48
2022-10-09T07:31:11.404Z,68.59
2022-10-09T07:32:11.228Z,67.79
2022-10-09T07:33:11.182Z,67.10
2022-10-09T07:34:11.161Z,69.23
2022-10-09T07:35:11.143Z,67.67
2022-10-09T07:36:11.125Z,68.99
2022-10-09T07:37:11.137Z,69.46
2022-10-09T07:38:11.088Z,69.23
2022-10-09T07:39:11.068Z,68.30
2022-10-09T07:40:11.049Z,68.56
2022-10-09T07:41:11.034Z,67.97
2022-10-09T07:42:11.040Z,69.54
2022-10-09T07:43:10.991Z,69.45
2022-10-09T07:44:10.972Z,69.46
2022-10-09T07:45:10.952Z,70.25
2022-10-09T07:46:10.965Z,69.52
2022-10-09T07:47:10.943Z,70.54
2022-10-09T07:48:10.895Z,69.16
2022-10-09T07:49:10.876Z,70.20
2022-10-09T07:50:10.858Z,68.92
2022-10-09T07:51:10.844Z,69.00
2022-10-09T07:52:10.855Z,68.43
2022-10-09T07:53:10.808Z,70.27
2022-10-09T07:54:10.785Z,69.86
2022-10-09T07:55:10.773Z,70.08
2022-10-09T07:56:10.750Z,70.21
2022-10-09T07:57:10.760Z,71.11
2022-10-09T07:58:10.713Z,68.20
2022-10-09T07:59:10.691Z,69.69
2022-10-09T08:00:10.674Z,69.08
2022-10-09T08:01:10.722Z,70.08
2022-10-09T08:02:10.729Z,70.66
2022-10-09T08:03:10.654Z,71.68
2022-10-09T08:04:10.599Z,71.41
2022-10-09T08:05:10.587Z,70.96
2022-10-09T08:06:10.566Z,70.73
2022-10-09T08:07:10.573Z,71.16
2022-10-09T08:08:10.526Z,71.05
2022-10-09T08:09:10.509Z,71.72
2022-10-09T08:10:10.485Z,71.04
2022-10-09T08:11:10.467Z,70.59
2022-10-09T08:12:10.478Z,69.27
2022-10-09T08:13:10.428Z,71.46
2022-10-09T08:14:11.685Z,70.78
2022-10-09T08:15:10.396Z,68.69
2022-10-09T08:16:10.412Z,70.54
2022-10-09T08:17:10.391Z,69.01
2022-10-09T08:18:10.338Z,70.53
2022-10-09T08:19:10.321Z,69.77
2022-10-09T08:20:10.304Z,71.86
2022-10-09T08:21:10.282Z,69.41
2022-10-09T08:22:11.295Z,70.88
2022-10-09T08:23:10.244Z,70.96
2022-10-09T08:24:10.227Z,70.09
2022-10-09T08:25:10.235Z,71.01
2022-10-09T08:26:10.193Z,70.28
2022-10-09T08:27:10.202Z,71.37
2022-10-09T08:28:10.228Z,70.01
2022-10-09T08:29:10.139Z,70.17
2022-10-09T08:30:10.118Z,69.20
2022-10-09T08:31:10.160Z,69.88
2022-10-09T08:32:10.105Z,71.77
2022-10-09T08:33:10.060Z,71.27
2022-10-09T08:34:10.042Z,69.95
2022-10-09T08:35:10.027Z,71.79
2022-10-09T08:36:10.080Z,68.62
2022-10-09T08:37:10.022Z,71.37
2022-10-09T08:38:21.275Z,70.82
2022-10-09T08:39:10.959Z,71.62
2022-10-09T08:40:09.933Z,71.34
2022-10-09T08:41:09.914Z,70.92
2022-10-09T08:42:09.923Z,72.64
2022-10-09T08:43:09.879Z,71.43
2022-10-09T08:44:09.862Z,72.56
2022-10-09T08:45:09.840Z,71.08
2022-10-09T08:46:09.922Z,70.02
2022-10-09T08:47:09.833Z,70.68
2022-10-09T08:48:09.787Z,72.75
2022-10-09T08:49:09.768Z,70.97
2022-10-09T08:50:09.749Z,71.99
2022-10-09T08:51:09.729Z,72.60
2022-10-09T08:52:09.739Z,71.75
2022-10-09T08:53:09.704Z,70.74
2022-10-09T08:54:09.683Z,70.53
2022-10-09T08:55:09.658Z,72.20
2022-10-09T08:56:09.641Z,71.19
2022-10-09T08:57:09.649Z,72.26
2022-10-09T08:58:09.601Z,71.80
2022-10-09T08:59:09.584Z,70.74
2022-10-09T09:00:09.568Z,71.83
2022-10-09T09:01:09.547Z,71.96
2022-10-09T09:02:09.611Z,72.53
2022-10-09T09:03:09.540Z,71.45
2022-10-09T09:04:09.491Z,71.38
2022-10-09T09:05:09.471Z,70.35
2022-10-09T09:06:09.451Z,70.51
2022-10-09T09:07:09.461Z,71.28
2022-10-09T09:08:09.416Z,73.58
2022-10-09T09:09:09.395Z,72.83
2022-10-09T09:10:09.380Z,73.08
2022-10-09T09:11:09.367Z,72.50
2022-10-09T09:12:09.363Z,72.55
2022-10-09T09:13:10.322Z,71.79
2022-10-09T09:14:09.303Z,70.48
2022-10-09T09:15:09.286Z,72.56
2022-10-09T09:16:09.296Z,72.82
2022-10-09T09:17:09.271Z,72.06
2022-10-09T09:18:09.231Z,72.60
2022-10-09T09:19:09.208Z,69.46
2022-10-09T09:20:09.186Z,72.10
2022-10-09T09:21:09.170Z,73.66
2022-10-09T09:22:09.178Z,71.38
2022-10-09T09:23:09.132Z,72.30
2022-10-09T09:24:09.116Z,73.25
2022-10-09T09:25:09.097Z,72.05
2022-10-09T09:26:09.076Z,71.83
2022-10-09T09:27:09.086Z,72.44
2022-10-09T09:28:12.352Z,71.59
2022-10-09T09:29:10.027Z,72.97
2022-10-09T09:30:09.000Z,71.83
2022-10-09T09:31:09.022Z,73.04
2022-10-09T09:32:08.993Z,72.82
2022-10-09T09:33:08.946Z,72.17
2022-10-09T09:34:08.923Z,72.29
2022-10-09T09:35:08.910Z,72.37
2022-10-09T09:36:08.890Z,71.76
2022-10-09T09:37:08.900Z,73.58
2022-10-09T09:38:08.854Z,72.72
2022-10-09T09:40:43.197Z,71.97
2022-10-09T09:41:10.798Z,73.34
2022-10-09T09:42:08.802Z,73.29
2022-10-09T09:43:08.754Z,74.08
2022-10-09T09:44:08.737Z,72.03
2022-10-09T09:45:08.715Z,72.54
2022-10-09T09:46:08.747Z,73.79
2022-10-09T09:47:08.703Z,72.08
2022-10-09T09:48:08.657Z,72.73
2022-10-09T09:49:09.510Z,72.56
2022-10-09T09:50:23.367Z,72.96
2022-10-09T09:51:27.627Z,73.45
2022-10-09T09:52:10.623Z,73.13
2022-10-09T09:53:08.569Z,73.16
2022-10-09T09:54:08.547Z,71.88
2022-10-09T09:55:08.528Z,73.24
2022-10-09T09:56:08.513Z,73.30
2022-10-09T09:57:13.761Z,72.30
2022-10-09T09:58:10.470Z,72.47
2022-10-09T09:59:08.454Z,74.36
2022-10-09T10:00:08.441Z,73.06
2022-10-09T10:01:08.444Z,71.90
2022-10-09T10:02:08.483Z,72.37
2022-10-09T10:03:08.373Z,72.14
2022-10-09T10:04:08.354Z,73.77
2022-10-09T10:05:08.336Z,72.61
2022-10-09T10:06:08.320Z,72.39
2022-10-09T10:07:08.324Z,71.58
2022-10-09T10:08:08.281Z,72.03
2022-10-09T10:09:08.258Z,72.14
2022-10-09T10:10:08.241Z,72.42
2022-10-09T10:11:08.228Z,70.97
2022-10-09T10:12:08.230Z,71.60
2022-10-09T10:13:08.183Z,72.57
2022-10-09T10:14:08.162Z,71.30
2022-10-09T10:15:08.154Z,73.60
2022-10-09T10:16:08.219Z,72.58
2022-10-09T10:17:08.134Z,72.67
2022-10-09T10:18:08.092Z,74.12
2022-10-09T10:19:08.072Z,72.57
2022-10-09T10:20:08.051Z,71.88
2022-10-09T10:21:08.054Z,71.32
2022-10-09T10:22:08.037Z,73.46
2022-10-09T10:23:07.991Z,73.70
2022-10-09T10:24:07.969Z,72.20
2022-10-09T10:25:10.520Z,72.83
2022-10-09T10:26:07.933Z,71.62
2022-10-09T10:27:07.935Z,71.13
2022-10-09T10:28:07.936Z,73.78
2022-10-09T10:29:07.869Z,71.62
2022-10-09T10:30:07.858Z,73.37
2022-10-09T10:31:07.857Z,73.76
2022-10-09T10:32:07.837Z,71.89
2022-10-09T10:33:07.792Z,74.14
2022-10-09T10:34:07.768Z,73.24
2022-10-09T10:35:07.746Z,73.89
2022-10-09T10:36:07.727Z,73.43
2022-10-09T10:37:07.729Z,73.56
2022-10-09T10:38:07.682Z,73.24
2022-10-09T10:39:07.659Z,72.71
2022-10-09T10:40:07.638Z,72.30
2022-10-09T10:41:07.618Z,72.51
2022-10-09T10:42:07.621Z,72.77
2022-10-09T10:43:07.574Z,73.46
2022-10-09T10:44:07.560Z,73.74
2022-10-09T10:45:07.528Z,71.85
2022-10-09T10:46:07.506Z,73.69
2022-10-09T10:47:07.513Z,72.27
2022-10-09T10:48:07.466Z,73.35
2022-10-09T10:49:07.443Z,74.24
2022-10-09T10:50:07.421Z,73.44
2022-10-09T10:51:07.397Z,72.17
2022-10-09T10:52:07.409Z,73.54
2022-10-09T10:53:07.810Z,72.16
2022-10-09T10:54:07.329Z,71.32
2022-10-09T10:55:07.307Z,72.96
2022-10-09T10:56:07.284Z,74.03
2022-10-09T10:57:07.291Z,73.14
2022-10-09T10:58:07.239Z,74.10
2022-10-09T10:59:07.219Z,74.52
2022-10-09T11:00:07.197Z,73.96
2022-10-09T11:01:07.205Z,73.19
2022-10-09T11:02:07.182Z,73.48
2022-10-09T11:03:07.159Z,73.12
2022-10-09T11:04:07.106Z,72.47
2022-10-09T11:05:07.081Z,73.90
2022-10-09T11:06:08.060Z,72.74
2022-10-09T11:07:07.067Z,73.02
2022-10-09T11:08:07.010Z,73.58
2022-10-09T11:09:06.991Z,73.91
2022-10-09T11:10:06.967Z,73.99
2022-10-09T11:11:06.947Z,73.48
2022-10-09T11:12:10.052Z,73.12
2022-10-09T11:13:07.901Z,72.25
2022-10-09T11:14:06.883Z,72.25
2022-10-09T11:15:06.860Z,73.76
2022-10-09T11:16:06.853Z,72.56
2022-10-09T11:17:06.841Z,72.48
2022-10-09T11:18:06.799Z,71.92
2022-10-09T11:19:06.769Z,71.25
2022-10-09T11:20:06.747Z,71.66
2022-10-09T11:21:06.738Z,72.48
2022-10-09T11:22:06.755Z,70.89
2022-10-09T11:23:06.684Z,70.18
2022-10-09T11:24:06.661Z,70.83
2022-10-09T11:25:06.636Z,72.61
2022-10-09T11:26:06.604Z,71.93
2022-10-09T11:27:07.614Z,72.26
2022-10-09T11:28:06.604Z,71.69
2022-10-09T11:29:06.540Z,72.22
2022-10-09T11:30:06.521Z,71.84
2022-10-09T11:31:06.557Z,72.99
2022-10-09T11:32:06.570Z,72.44
2022-10-09T11:33:06.453Z,71.01
2022-10-09T11:34:06.429Z,71.15
2022-10-09T11:35:06.408Z,71.56
2022-10-09T11:36:06.386Z,72.10
2022-10-09T11:37:06.391Z,72.00
2022-10-09T11:38:08.114Z,73.07
2022-10-09T11:39:07.318Z,72.28
2022-10-09T11:40:06.291Z,72.27
2022-10-09T11:41:07.315Z,68.93
2022-10-09T11:42:07.278Z,69.63
2022-10-09T11:43:06.230Z,73.09
2022-10-09T11:44:06.210Z,71.94
2022-10-09T11:45:06.182Z,73.20
2022-10-09T11:46:06.227Z,72.47
2022-10-09T11:47:09.482Z,71.55
2022-10-09T11:48:07.115Z,72.65
2022-10-09T11:49:06.089Z,72.37
2022-10-09T11:50:06.067Z,71.87
2022-10-09T11:51:06.044Z,72.83
2022-10-09T11:52:06.051Z,72.01
2022-10-09T11:53:06.003Z,71.85
2022-10-09T11:54:05.983Z,71.43
2022-10-09T11:55:05.953Z,72.71
2022-10-09T11:56:05.932Z,73.98
2022-10-09T11:57:06.596Z,71.38
2022-10-09T11:58:06.886Z,71.83
2022-10-09T11:59:05.874Z,70.61
2022-10-09T12:00:05.850Z,73.20
2022-10-09T12:01:05.851Z,72.10
2022-10-09T12:02:05.895Z,72.38
2022-10-09T12:03:05.775Z,71.72
2022-10-09T12:04:05.749Z,70.20
2022-10-09T12:05:05.728Z,71.25
2022-10-09T12:06:05.699Z,72.62
2022-10-09T12:07:05.681Z,72.50
2022-10-09T12:08:05.684Z,72.38
2022-10-09T12:09:05.636Z,72.00
2022-10-09T12:10:05.614Z,71.57
2022-10-09T12:11:05.590Z,72.69
2022-10-09T12:12:05.598Z,74.18
2022-10-09T12:13:05.550Z,72.14
2022-10-09T12:14:05.525Z,71.43
2022-10-09T12:15:05.502Z,73.38
2022-10-09T12:16:05.474Z,72.38
2022-10-09T12:17:05.482Z,73.02
2022-10-09T12:18:05.435Z,73.10
2022-10-09T12:19:05.412Z,72.27
2022-10-09T12:20:05.385Z,73.44
2022-10-09T12:21:05.366Z,72.19
2022-10-09T12:22:05.368Z,71.91
2022-10-09T12:23:25.754Z,73.10
2022-10-09T12:24:07.300Z,73.12
2022-10-09T12:25:05.280Z,72.17
2022-10-09T12:26:05.266Z,74.42
2022-10-09T12:27:05.255Z,72.40
2022-10-09T12:28:05.268Z,73.10
2022-10-09T12:29:05.183Z,73.84
2022-10-09T12:30:05.160Z,73.52
2022-10-09T12:31:05.200Z,72.38
2022-10-09T12:32:05.118Z,72.11
2022-10-09T12:33:05.092Z,72.66
2022-10-09T12:34:05.070Z,72.42
2022-10-09T12:35:05.046Z,73.31
2022-10-09T12:36:05.065Z,73.04
2022-10-09T12:37:05.023Z,73.88
2022-10-09T12:38:04.977Z,72.58
2022-10-09T12:39:04.953Z,72.53
2022-10-09T12:40:04.954Z,72.53
2022-10-09T12:41:04.951Z,73.26
2022-10-09T12:42:04.893Z,71.80
2022-10-09T12:43:04.873Z,73.36
2022-10-09T12:44:04.852Z,73.95
2022-10-09T12:45:04.828Z,72.63
2022-10-09T12:46:04.868Z,71.98
2022-10-09T12:47:04.779Z,73.63
2022-10-09T12:48:04.754Z,73.28
2022-10-09T12:49:04.734Z,72.60
2022-10-09T12:50:04.776Z,72.94
2022-10-09T12:51:04.719Z,73.05
2022-10-09T12:52:04.667Z,72.23
2022-10-09T12:53:04.655Z,73.08